createdAt,value
2017-11-25T00:00:42.304Z,22.90
2017-11-25T00:03:08.990Z,26.20
2017-11-25T00:05:35.683Z,23.80
2017-11-25T00:08:02.366Z,25.57
2017-11-25T00:10:29.089Z,24.07
2017-11-25T00:12:55.791Z,23.30
2017-11-25T00:15:23.302Z,23.70
2017-11-25T00:17:50.095Z,24.60
2017-11-25T00:20:17.623Z,23.62
2017-11-25T00:22:44.353Z,24.65
2017-11-25T00:25:11.199Z,25.08
2017-11-25T00:27:38.033Z,25.60
2017-11-25T00:30:04.770Z,25.40
2017-11-25T00:32:31.453Z,25.60
2017-11-25T00:34:58.144Z,25.50
2017-11-25T00:37:24.852Z,24.27
2017-11-25T00:39:51.544Z,22.53
2017-11-25T00:42:18.240Z,23.65
2017-11-25T00:44:44.937Z,23.50
2017-11-25T00:47:11.656Z,22.77
2017-11-25T00:49:38.353Z,23.65
2017-11-25T00:52:05.119Z,24.17
2017-11-25T00:54:31.877Z,23.23
2017-11-25T00:56:59.539Z,25.20
2017-11-25T00:59:26.970Z,24.25
2017-11-25T01:01:53.680Z,21.80
2017-11-25T01:04:20.620Z,23.10
2017-11-25T01:06:47.334Z,24.70
2017-11-25T01:09:14.785Z,24.27
2017-11-25T01:11:41.456Z,23.52
2017-11-25T01:14:08.172Z,24.63
2017-11-25T01:16:34.851Z,24.95
2017-11-25T01:19:01.526Z,28.23
2017-11-25T01:21:30.494Z,31.67
2017-11-25T01:23:57.182Z,30.55
2017-11-25T01:26:23.951Z,32.47
2017-11-25T01:28:51.392Z,32.47
2017-11-25T01:31:18.097Z,31.95
2017-11-25T01:33:44.806Z,32.63
2017-11-25T01:36:12.319Z,38.38
2017-11-25T01:38:39.225Z,34.53
2017-11-25T01:41:05.976Z,35.00
2017-11-25T01:43:32.743Z,35.42
2017-11-25T01:45:59.439Z,36.03
2017-11-25T01:48:26.874Z,37.05
2017-11-25T01:50:54.580Z,38.88
2017-11-25T01:53:21.328Z,39.78
2017-11-25T01:55:49.075Z,34.38
2017-11-25T01:58:16.306Z,35.10
2017-11-25T02:00:43.103Z,34.05
2017-11-25T02:03:12.608Z,36.83
2017-11-25T02:05:42.649Z,37.28
2017-11-25T02:08:11.336Z,37.65
2017-11-25T02:10:39.926Z,46.05
2017-11-25T02:13:07.805Z,41.20
2017-11-25T02:15:37.069Z,36.72
2017-11-25T02:18:06.251Z,40.63
2017-11-25T02:20:33.032Z,34.85
2017-11-25T02:22:59.786Z,38.03
2017-11-25T02:25:26.543Z,41.15
2017-11-25T02:27:53.299Z,46.22
2017-11-25T02:30:20.832Z,48.67
2017-11-25T02:32:47.592Z,41.72
2017-11-25T02:35:14.354Z,43.45
2017-11-25T02:37:41.146Z,40.25
2017-11-25T02:40:08.658Z,51.75
2017-11-25T02:42:35.392Z,40.72
2017-11-25T02:45:02.177Z,36.10
2017-11-25T02:47:28.946Z,35.70
2017-11-25T02:49:55.691Z,37.58
2017-11-25T02:52:23.208Z,34.63
2017-11-25T02:57:34.408Z,34.75
2017-11-25T03:00:06.193Z,38.65
2017-11-25T03:02:33.207Z,35.70
2017-11-25T03:05:00.509Z,36.75
2017-11-25T03:07:27.331Z,35.80
2017-11-25T03:09:54.154Z,35.20
2017-11-25T03:12:21.679Z,31.55
2017-11-25T03:14:49.203Z,35.47
2017-11-25T03:17:17.445Z,33.38
2017-11-25T03:19:44.191Z,34.67
2017-11-25T03:22:11.014Z,34.40
2017-11-25T03:24:38.568Z,36.13
2017-11-25T03:27:06.594Z,38.35
2017-11-25T03:29:34.488Z,40.50
2017-11-25T03:32:02.163Z,38.30
2017-11-25T03:34:28.869Z,38.75
2017-11-25T03:36:55.602Z,38.83
2017-11-25T03:39:22.341Z,33.60
2017-11-25T03:41:49.160Z,32.65
2017-11-25T03:44:16.726Z,37.33
2017-11-25T03:46:44.169Z,41.03
2017-11-25T03:49:10.867Z,48.00
2017-11-25T03:51:37.545Z,36.88
2017-11-25T03:54:04.317Z,43.25
2017-11-25T03:56:31.230Z,34.67
2017-11-25T03:58:58.275Z,32.25
2017-11-25T04:01:24.967Z,30.35
2017-11-25T04:03:51.823Z,28.12
2017-11-25T04:06:18.659Z,29.27
2017-11-25T04:08:45.340Z,31.62
2017-11-25T04:11:12.070Z,30.17
2017-11-25T04:13:38.742Z,29.30
2017-11-25T04:16:05.445Z,27.92
2017-11-25T04:18:32.199Z,28.17
2017-11-25T04:20:58.864Z,28.23
2017-11-25T04:23:25.586Z,27.05
2017-11-25T04:25:52.318Z,28.27
2017-11-25T04:28:19.733Z,32.53
2017-11-25T04:30:46.435Z,34.70
2017-11-25T04:33:13.133Z,35.20
2017-11-25T04:35:39.812Z,35.78
2017-11-25T04:38:06.497Z,40.00
2017-11-25T04:40:33.214Z,35.33
2017-11-25T04:42:59.923Z,30.92
2017-11-25T04:45:27.384Z,36.83
2017-11-25T04:47:54.118Z,34.92
2017-11-25T04:50:21.610Z,36.75
2017-11-25T04:52:48.340Z,36.20
2017-11-25T04:55:15.833Z,33.33
2017-11-25T04:57:42.690Z,32.13
2017-11-25T05:00:09.545Z,33.97
2017-11-25T05:02:36.354Z,34.78
2017-11-25T05:05:03.124Z,36.70
2017-11-25T05:07:29.832Z,58.05
2017-11-25T05:09:57.707Z,49.42
2017-11-25T05:12:24.844Z,38.03
2017-11-25T05:14:52.343Z,39.08
2017-11-25T05:17:19.530Z,34.00
2017-11-25T05:19:46.256Z,32.42
2017-11-25T05:22:12.980Z,29.35
2017-11-25T05:24:39.651Z,29.65
2017-11-25T05:27:06.416Z,32.67
2017-11-25T05:29:33.104Z,42.38
2017-11-25T05:32:00.248Z,51.75
2017-11-25T05:34:27.810Z,52.75
2017-11-25T05:36:55.244Z,42.67
2017-11-25T05:39:21.990Z,40.15
2017-11-25T05:41:48.707Z,41.42
2017-11-25T05:44:15.433Z,40.83
2017-11-25T05:46:42.136Z,40.38
2017-11-25T05:49:09.638Z,40.28
2017-11-25T05:51:36.374Z,46.08
2017-11-25T05:54:03.115Z,42.85
2017-11-25T05:56:29.793Z,39.92
2017-11-25T05:58:56.551Z,46.70
2017-11-25T06:01:23.270Z,43.00
2017-11-25T06:03:49.958Z,58.60
2017-11-25T06:06:16.636Z,154.20
2017-11-25T06:08:43.290Z,63.30
2017-11-25T06:11:09.958Z,53.65
2017-11-25T06:13:36.659Z,52.15
2017-11-25T06:16:03.359Z,48.20
2017-11-25T06:18:30.413Z,45.28
2017-11-25T06:20:57.071Z,49.25
2017-11-25T06:23:24.498Z,52.97
2017-11-25T06:25:51.185Z,49.97
2017-11-25T06:28:17.920Z,50.58
2017-11-25T06:30:45.336Z,53.38
2017-11-25T06:33:12.024Z,54.97
2017-11-25T06:35:39.468Z,60.28
2017-11-25T06:38:06.137Z,47.40
2017-11-25T06:40:32.827Z,77.25
2017-11-25T06:42:59.511Z,51.80
2017-11-25T06:45:26.933Z,44.85
2017-11-25T06:47:53.604Z,57.08
2017-11-25T06:50:20.344Z,42.35
2017-11-25T06:52:47.755Z,69.15
2017-11-25T06:55:14.493Z,39.78
2017-11-25T06:57:41.217Z,40.00
2017-11-25T07:00:09.583Z,41.45
2017-11-25T07:02:36.269Z,36.90
2017-11-25T07:05:02.974Z,41.10
2017-11-25T07:07:30.411Z,34.55
2017-11-25T07:09:57.464Z,35.00
2017-11-25T07:12:24.159Z,31.37
2017-11-25T07:14:51.057Z,28.02
2017-11-25T07:17:17.785Z,27.90
2017-11-25T07:19:44.477Z,25.00
2017-11-25T07:22:12.029Z,23.10
2017-11-25T07:24:39.463Z,23.33
2017-11-25T07:27:06.162Z,25.83
2017-11-25T07:29:32.847Z,21.90
2017-11-25T07:31:59.536Z,27.03
2017-11-25T07:34:26.939Z,22.63
2017-11-25T07:36:53.648Z,23.80
2017-11-25T07:39:20.301Z,23.90
2017-11-25T07:41:47.755Z,24.67
2017-11-25T07:44:14.476Z,24.93
2017-11-25T07:46:42.042Z,25.20
2017-11-25T07:49:09.444Z,24.20
2017-11-25T07:51:36.152Z,23.00
2017-11-25T07:54:03.643Z,25.47
2017-11-25T07:56:30.385Z,24.20
2017-11-25T07:58:57.091Z,26.10
2017-11-25T08:01:24.570Z,22.17
2017-11-25T08:03:51.324Z,24.13
2017-11-25T08:06:18.033Z,23.13
2017-11-25T08:08:45.510Z,23.70
2017-11-25T08:11:12.254Z,24.17
2017-11-25T08:13:39.749Z,23.57
2017-11-25T08:16:06.402Z,24.67
2017-11-25T08:18:33.096Z,24.80
2017-11-25T08:21:00.585Z,24.33
2017-11-25T08:23:27.277Z,22.57
2017-11-25T08:25:54.016Z,21.97
2017-11-25T08:28:20.659Z,20.50
2017-11-25T08:30:47.338Z,20.57
2017-11-25T08:33:14.822Z,18.93
2017-11-25T08:35:41.586Z,18.90
2017-11-25T08:38:08.268Z,19.10
2017-11-25T08:40:35.767Z,19.80
2017-11-25T08:43:02.526Z,19.37
2017-11-25T08:45:29.216Z,21.10
2017-11-25T08:47:55.879Z,20.83
2017-11-25T08:50:23.297Z,20.97
2017-11-25T08:52:50.030Z,21.30
2017-11-25T08:55:16.697Z,20.93
2017-11-25T08:57:43.386Z,20.70
2017-11-25T09:00:10.106Z,20.60
2017-11-25T09:02:37.554Z,20.77
2017-11-25T09:05:05.136Z,20.10
2017-11-25T09:07:32.619Z,18.13
2017-11-25T09:09:59.305Z,18.40
2017-11-25T09:12:25.968Z,19.33
2017-11-25T09:14:53.409Z,19.80
2017-11-25T09:17:20.153Z,20.70
2017-11-25T09:19:46.875Z,20.57
2017-11-25T09:22:13.620Z,20.10
2017-11-25T09:24:40.342Z,22.10
2017-11-25T09:27:07.082Z,20.40
2017-11-25T09:29:33.837Z,20.73
2017-11-25T09:32:00.532Z,22.37
2017-11-25T09:34:27.242Z,20.67
2017-11-25T09:36:54.025Z,20.03
2017-11-25T09:39:20.758Z,21.97
2017-11-25T09:41:47.478Z,21.33
2017-11-25T09:44:14.324Z,22.63
2017-11-25T09:46:41.027Z,21.93
2017-11-25T09:49:07.755Z,20.63
2017-11-25T09:51:36.085Z,21.50
2017-11-25T09:54:02.770Z,21.80
2017-11-25T09:56:29.485Z,23.20
2017-11-25T09:58:56.175Z,22.63
2017-11-25T10:01:23.631Z,22.87
2017-11-25T10:03:51.076Z,22.87
2017-11-25T10:06:18.537Z,25.07
2017-11-25T10:08:45.266Z,24.80
2017-11-25T10:11:11.936Z,25.83
2017-11-25T10:13:39.393Z,24.90
2017-11-25T10:16:06.835Z,25.60
2017-11-25T10:18:33.499Z,26.80
2017-11-25T10:21:00.973Z,27.10
2017-11-25T10:23:29.156Z,26.27
2017-11-25T10:25:55.835Z,26.50
2017-11-25T10:28:22.550Z,27.80
2017-11-25T10:30:49.508Z,25.60
2017-11-25T10:33:16.239Z,25.03
2017-11-25T10:35:42.926Z,25.90
2017-11-25T10:38:09.607Z,25.20
2017-11-25T10:40:37.061Z,24.90
2017-11-25T10:43:04.505Z,25.20
2017-11-25T10:45:32.190Z,24.97
2017-11-25T10:47:59.616Z,26.57
2017-11-25T10:50:26.379Z,26.33
2017-11-25T10:52:53.140Z,25.40
2017-11-25T10:55:19.915Z,25.43
2017-11-25T10:57:48.259Z,27.10
2017-11-25T11:00:15.073Z,27.00
2017-11-25T11:02:41.768Z,25.40
2017-11-25T11:05:09.179Z,25.20
2017-11-25T11:07:35.875Z,25.40
2017-11-25T11:10:03.346Z,26.47
2017-11-25T11:12:30.066Z,26.63
2017-11-25T11:14:57.534Z,27.80
2017-11-25T11:17:24.968Z,25.13
2017-11-25T11:19:51.653Z,26.77
2017-11-25T11:22:18.328Z,27.23
2017-11-25T11:24:45.009Z,28.07
2017-11-25T11:27:11.681Z,26.60
2017-11-25T11:29:38.451Z,27.70
2017-11-25T11:32:05.131Z,28.83
2017-11-25T11:34:31.808Z,28.50
2017-11-25T11:36:58.531Z,25.47
2017-11-25T11:39:25.978Z,27.10
2017-11-25T11:41:52.679Z,24.90
2017-11-25T11:44:19.409Z,26.33
2017-11-25T11:46:46.113Z,26.10
2017-11-25T11:49:12.818Z,25.23
2017-11-25T11:51:39.502Z,27.07
2017-11-25T11:54:06.998Z,25.13
2017-11-25T11:56:33.658Z,27.93
2017-11-25T11:59:00.382Z,27.60
2017-11-25T12:01:27.135Z,27.40
2017-11-25T12:03:53.841Z,27.70
2017-11-25T12:06:21.331Z,25.20
2017-11-25T12:08:48.049Z,26.87
2017-11-25T12:11:15.558Z,28.73
2017-11-25T12:13:42.313Z,27.23
2017-11-25T12:16:09.731Z,26.60
2017-11-25T12:18:36.448Z,26.30
2017-11-25T12:21:03.208Z,27.00
2017-11-25T12:23:30.721Z,27.30
2017-11-25T12:25:57.403Z,23.97
2017-11-25T12:28:24.120Z,25.57
2017-11-25T12:30:50.795Z,25.10
2017-11-25T12:33:18.213Z,24.50
2017-11-25T12:35:44.935Z,27.10
2017-11-25T12:38:11.641Z,25.03
2017-11-25T12:40:39.087Z,24.90
2017-11-25T12:43:06.544Z,24.90
2017-11-25T12:45:34.029Z,25.37
2017-11-25T12:48:01.446Z,25.07
2017-11-25T12:50:28.961Z,26.57
2017-11-25T12:52:56.373Z,25.83
2017-11-25T12:55:23.059Z,24.57
2017-11-25T12:57:50.577Z,24.97
2017-11-25T13:00:17.295Z,23.63
2017-11-25T13:02:43.988Z,24.90
2017-11-25T13:05:10.674Z,22.63
2017-11-25T13:07:37.312Z,24.80
2017-11-25T13:10:04.002Z,25.43
2017-11-25T13:12:30.771Z,25.43
2017-11-25T13:14:57.451Z,24.57
2017-11-25T13:17:24.144Z,25.67
2017-11-25T13:19:50.889Z,23.60
2017-11-25T13:22:17.623Z,24.60
2017-11-25T13:24:44.341Z,25.73
2017-11-25T13:27:11.026Z,22.23
2017-11-25T13:29:38.482Z,24.17
2017-11-25T13:32:05.170Z,23.80
2017-11-25T13:34:31.887Z,24.70
2017-11-25T13:36:59.344Z,24.87
2017-11-25T13:39:26.776Z,24.57
2017-11-25T13:41:53.497Z,23.53
2017-11-25T13:44:20.243Z,25.03
2017-11-25T13:46:46.968Z,21.97
2017-11-25T13:49:13.675Z,23.90
2017-11-25T13:51:40.406Z,23.37
2017-11-25T13:54:07.180Z,20.33
2017-11-25T13:56:35.534Z,20.23
2017-11-25T13:59:02.466Z,24.20
2017-11-25T14:01:29.223Z,23.33
2017-11-25T14:03:55.977Z,25.00
2017-11-25T14:06:22.843Z,23.23
2017-11-25T14:08:50.372Z,24.47
2017-11-25T14:11:17.085Z,24.83
2017-11-25T14:13:43.869Z,23.73
2017-11-25T14:16:10.595Z,24.43
2017-11-25T14:18:37.357Z,24.17
2017-11-25T14:21:04.092Z,23.63
2017-11-25T14:23:30.777Z,23.63
2017-11-25T14:25:58.205Z,24.27
2017-11-25T14:28:24.960Z,23.90
2017-11-25T14:30:52.647Z,23.27
2017-11-25T14:33:20.132Z,23.77
2017-11-25T14:35:46.834Z,23.73
2017-11-25T14:38:13.601Z,21.30
2017-11-25T14:40:41.056Z,22.10
2017-11-25T14:43:08.487Z,23.37
2017-11-25T14:45:35.207Z,21.73
2017-11-25T14:48:01.891Z,23.63
2017-11-25T14:50:29.382Z,21.50
2017-11-25T14:52:56.144Z,23.90
2017-11-25T14:55:23.709Z,23.67
2017-11-25T14:57:50.462Z,22.03
2017-11-25T15:00:17.306Z,23.50
2017-11-25T15:02:44.905Z,22.57
2017-11-25T15:05:11.610Z,23.17
2017-11-25T15:07:38.388Z,21.90
2017-11-25T15:10:05.800Z,21.47
2017-11-25T15:12:32.489Z,21.17
2017-11-25T15:14:59.256Z,23.70
2017-11-25T15:17:26.779Z,22.37
2017-11-25T15:19:53.559Z,21.70
2017-11-25T15:22:20.293Z,21.37
2017-11-25T15:24:47.108Z,21.03
2017-11-25T15:27:13.882Z,22.47
2017-11-25T15:29:40.675Z,22.00
2017-11-25T15:32:07.439Z,23.43
2017-11-25T15:34:34.186Z,23.13
2017-11-25T15:37:01.084Z,23.67
2017-11-25T15:39:28.850Z,23.00
2017-11-25T15:41:55.699Z,22.77
2017-11-25T15:44:23.266Z,21.00
2017-11-25T15:46:50.787Z,24.80
2017-11-25T15:49:17.508Z,22.47
2017-11-25T15:51:44.239Z,21.90
2017-11-25T15:54:10.973Z,24.50
2017-11-25T15:56:38.545Z,28.43
2017-11-25T15:59:05.347Z,25.53
2017-11-25T16:01:32.055Z,23.03
2017-11-25T16:03:58.779Z,24.57
2017-11-25T16:06:25.476Z,23.57
2017-11-25T16:08:52.209Z,22.23
2017-11-25T16:11:19.124Z,24.20
2017-11-25T16:13:45.842Z,28.60
2017-11-25T16:16:13.468Z,25.70
2017-11-25T16:18:40.241Z,25.43
2017-11-25T16:21:07.736Z,24.00
2017-11-25T16:23:35.116Z,27.50
2017-11-25T16:26:01.901Z,27.10
2017-11-25T16:28:33.496Z,27.87
2017-11-25T16:31:00.211Z,25.73
2017-11-25T16:33:27.633Z,26.60
2017-11-25T16:35:54.401Z,25.87
2017-11-25T16:38:22.870Z,24.23
2017-11-25T16:40:50.053Z,26.00
2017-11-25T16:43:16.840Z,25.17
2017-11-25T16:45:43.532Z,24.83
2017-11-25T16:48:14.217Z,23.13
2017-11-25T16:50:41.112Z,24.10
2017-11-25T16:53:07.867Z,23.77
2017-11-25T16:55:34.540Z,23.57
2017-11-25T16:58:01.266Z,22.33
2017-11-25T17:00:28.692Z,21.90
2017-11-25T17:02:55.384Z,24.63
2017-11-25T17:05:23.215Z,22.97
2017-11-25T17:07:49.871Z,23.03
2017-11-25T17:10:16.543Z,20.20
2017-11-25T17:12:43.239Z,20.00
2017-11-25T17:15:10.088Z,20.70
2017-11-25T17:17:36.747Z,21.23
2017-11-25T17:20:04.203Z,20.07
2017-11-25T17:22:30.896Z,18.83
2017-11-25T17:24:57.581Z,19.87
2017-11-25T17:27:24.293Z,21.33
2017-11-25T17:29:50.957Z,18.40
2017-11-25T17:32:17.781Z,18.30
2017-11-25T17:34:44.443Z,19.77
2017-11-25T17:37:11.130Z,20.30
2017-11-25T17:39:38.053Z,18.93
2017-11-25T17:42:04.976Z,19.77
2017-11-25T17:44:31.677Z,18.17
2017-11-25T17:47:04.124Z,20.30
2017-11-25T17:49:31.095Z,18.00
2017-11-25T17:51:58.608Z,18.70
2017-11-25T17:54:25.667Z,17.23
2017-11-25T17:56:52.520Z,17.73
2017-11-25T17:59:19.406Z,19.30
2017-11-25T18:01:46.825Z,17.23
2017-11-25T18:04:13.677Z,17.70
2017-11-25T18:06:40.498Z,16.37
2017-11-25T18:09:08.041Z,15.00
2017-11-25T18:11:34.760Z,16.60
2017-11-25T18:14:02.161Z,15.93
2017-11-25T18:16:28.883Z,15.30
2017-11-25T18:18:55.597Z,16.77
2017-11-25T18:21:23.068Z,15.30
2017-11-25T18:23:50.580Z,14.80
2017-11-25T18:26:17.280Z,15.43
2017-11-25T18:28:44.729Z,14.47
2017-11-25T18:31:12.177Z,14.50
2017-11-25T18:33:39.701Z,13.30
2017-11-25T18:36:06.396Z,11.80
2017-11-25T18:38:33.858Z,9.83
2017-11-25T18:41:01.389Z,10.70
2017-11-25T18:43:28.082Z,9.23
2017-11-25T18:45:54.766Z,7.37
2017-11-25T18:48:22.246Z,6.90
2017-11-25T18:50:48.976Z,6.57
2017-11-25T18:53:15.667Z,7.60
2017-11-25T18:55:43.088Z,5.73
2017-11-25T18:58:09.796Z,4.43
2017-11-25T19:00:36.541Z,4.23
2017-11-25T19:03:03.280Z,4.50
2017-11-25T19:05:30.001Z,5.87
2017-11-25T19:07:57.463Z,5.73
2017-11-25T19:10:24.897Z,4.20
2017-11-25T19:12:51.592Z,4.70
2017-11-25T19:15:18.310Z,6.23
2017-11-25T19:17:45.746Z,4.90
2017-11-25T19:20:12.472Z,4.83
2017-11-25T19:22:39.208Z,4.63
2017-11-25T19:25:06.099Z,4.47
2017-11-25T19:27:33.605Z,3.50
2017-11-25T19:30:00.294Z,3.10
2017-11-25T19:32:28.775Z,3.20
2017-11-25T19:34:55.514Z,2.83
2017-11-25T19:37:22.200Z,2.10
2017-11-25T19:39:49.647Z,2.40
2017-11-25T19:42:17.059Z,2.53
2017-11-25T19:44:43.782Z,2.20
2017-11-25T19:47:10.524Z,2.00
2017-11-25T19:49:37.256Z,2.97
2017-11-25T19:52:04.031Z,2.20
2017-11-25T19:54:30.768Z,2.50
2017-11-25T19:56:57.528Z,2.43
2017-11-25T19:59:24.994Z,1.70
2017-11-25T20:01:51.717Z,2.60
2017-11-25T20:04:18.403Z,1.80
2017-11-25T20:06:45.160Z,2.07
2017-11-25T20:09:12.578Z,1.47
2017-11-25T20:11:39.274Z,1.83
2017-11-25T20:14:05.954Z,1.93
2017-11-25T20:16:32.692Z,1.53
2017-11-25T20:18:59.393Z,1.57
2017-11-25T20:21:26.828Z,1.10
2017-11-25T20:23:53.520Z,1.43
2017-11-25T20:26:20.203Z,1.80
2017-11-25T20:28:46.900Z,2.00
2017-11-25T20:31:13.569Z,1.30
2017-11-25T20:33:40.242Z,1.83
2017-11-25T20:36:06.973Z,2.07
2017-11-25T20:38:33.665Z,1.30
2017-11-25T20:41:01.092Z,1.40
2017-11-25T20:43:27.932Z,1.90
2017-11-25T20:45:54.621Z,1.53
2017-11-25T20:48:21.408Z,2.70
2017-11-25T20:50:48.848Z,1.60
2017-11-25T20:53:15.521Z,0.93
2017-11-25T20:55:42.222Z,1.27
2017-11-25T20:58:08.936Z,0.90
2017-11-25T21:00:36.359Z,1.57
2017-11-25T21:03:03.842Z,0.87
2017-11-25T21:05:30.603Z,1.03
2017-11-25T21:07:58.011Z,1.00
2017-11-25T21:10:24.719Z,1.20
2017-11-25T21:12:52.149Z,1.07
2017-11-25T21:15:18.815Z,1.52
2017-11-25T21:17:45.532Z,2.00
2017-11-25T21:20:12.256Z,1.40
2017-11-25T21:22:38.938Z,0.80
2017-11-25T21:25:06.408Z,1.20
2017-11-25T21:27:33.876Z,1.07
2017-11-25T21:30:00.567Z,0.93
2017-11-25T21:32:27.259Z,0.70
2017-11-25T21:34:54.756Z,1.30
2017-11-25T21:37:21.547Z,0.80
2017-11-25T21:39:49.796Z,0.80
2017-11-25T21:42:16.487Z,0.60
2017-11-25T21:44:43.906Z,0.60
2017-11-25T21:47:10.668Z,0.83
2017-11-25T21:49:38.196Z,0.40
2017-11-25T21:52:04.864Z,0.70
2017-11-25T21:54:31.899Z,0.40
2017-11-25T21:56:58.596Z,0.60
2017-11-25T21:59:26.048Z,1.23
2017-11-25T22:01:53.479Z,0.60
2017-11-25T22:04:20.208Z,0.43
2017-11-25T22:06:46.933Z,0.70
2017-11-25T22:09:13.595Z,0.70
2017-11-25T22:11:40.311Z,0.50
2017-11-25T22:14:06.999Z,0.60
2017-11-25T22:16:33.732Z,0.70
2017-11-25T22:19:00.429Z,0.80
2017-11-25T22:21:27.127Z,0.80
2017-11-25T22:23:53.849Z,0.70
2017-11-25T22:26:20.569Z,0.80
2017-11-25T22:28:47.273Z,0.70
2017-11-25T22:31:14.776Z,0.90
2017-11-25T22:33:41.619Z,0.60
2017-11-25T22:36:08.295Z,0.65
2017-11-25T22:38:35.030Z,0.43
2017-11-25T22:41:01.832Z,0.50
2017-11-25T22:43:28.529Z,0.50
2017-11-25T22:45:55.251Z,0.73
2017-11-25T22:48:22.047Z,0.60
2017-11-25T22:50:50.495Z,0.50
2017-11-25T22:53:17.270Z,0.52
2017-11-25T22:55:44.771Z,0.40
2017-11-25T22:58:12.333Z,0.30
2017-11-25T23:00:39.062Z,0.63
2017-11-25T23:03:06.562Z,1.10
2017-11-25T23:05:39.179Z,0.50
2017-11-25T23:08:05.877Z,0.50
2017-11-25T23:10:46.365Z,0.70
2017-11-25T23:13:13.116Z,1.30
2017-11-25T23:15:39.814Z,1.10
2017-11-25T23:18:06.486Z,0.77
2017-11-25T23:20:33.197Z,1.10
2017-11-25T23:23:00.027Z,0.80
2017-11-25T23:25:27.485Z,1.10
2017-11-25T23:27:54.177Z,0.80
2017-11-25T23:30:21.164Z,0.70
2017-11-25T23:32:47.921Z,0.60
2017-11-25T23:35:14.641Z,0.50
2017-11-25T23:37:41.322Z,0.90
2017-11-25T23:40:08.022Z,0.50
2017-11-25T23:42:34.739Z,0.57
2017-11-25T23:45:01.496Z,0.50
2017-11-25T23:47:28.171Z,0.90
2017-11-25T23:49:54.879Z,0.97
2017-11-25T23:52:22.537Z,1.83
2017-11-25T23:54:49.208Z,0.90
2017-11-25T23:57:15.921Z,1.20
2017-11-25T23:59:42.590Z,0.60
